sensor_id;sensor_type;location;lat;lon;timestamp;pressure;altitude;pressure_sealevel;temperature;humidity
57024;BME280;42916;54.346;18.562;2024-01-27T00:01:08;100049.69;;;2.94;100.00
57024;BME280;42916;54.346;18.562;2024-01-27T00:03:43;100053.91;;;2.92;100.00
57024;BME280;42916;54.346;18.562;2024-01-27T00:06:10;100051.52;;;2.90;100.00
57024;BME280;42916;54.346;18.562;2024-01-27T00:08:37;100050.33;;;2.90;100.00
57024;BME280;42916;54.346;18.562;2024-01-27T00:11:04;100047.56;;;2.88;100.00
57024;BME280;42916;54.346;18.562;2024-01-27T00:13:31;100044.10;;;2.87;100.00
57024;BME280;42916;54.346;18.562;2024-01-27T00:15:57;100040.14;;;2.86;100.00
57024;BME280;42916;54.346;18.562;2024-01-27T00:18:24;100043.22;;;2.83;100.00
57024;BME280;42916;54.346;18.562;2024-01-27T00:20:51;100043.85;;;2.81;100.00
57024;BME280;42916;54.346;18.562;2024-01-27T00:23:18;100042.89;;;2.79;100.00
57024;BME280;42916;54.346;18.562;2024-01-27T00:25:45;100040.02;;;2.77;100.00
57024;BME280;42916;54.346;18.562;2024-01-27T00:28:12;100038.16;;;2.76;100.00
57024;BME280;42916;54.346;18.562;2024-01-27T00:30:39;100039.86;;;2.74;100.00
57024;BME280;42916;54.346;18.562;2024-01-27T00:33:06;100044.70;;;2.73;100.00
57024;BME280;42916;54.346;18.562;2024-01-27T00:35:32;100042.31;;;2.70;100.00
57024;BME280;42916;54.346;18.562;2024-01-27T00:37:59;100040.16;;;2.69;100.00
57024;BME280;42916;54.346;18.562;2024-01-27T00:40:26;100046.70;;;2.67;100.00
57024;BME280;42916;54.346;18.562;2024-01-27T00:42:53;100043.98;;;2.64;100.00
57024;BME280;42916;54.346;18.562;2024-01-27T00:45:21;100041.09;;;2.63;100.00
57024;BME280;42916;54.346;18.562;2024-01-27T00:47:50;100044.73;;;2.61;100.00
57024;BME280;42916;54.346;18.562;2024-01-27T00:50:17;100040.61;;;2.59;100.00
57024;BME280;42916;54.346;18.562;2024-01-27T00:52:44;100031.12;;;2.57;100.00
57024;BME280;42916;54.346;18.562;2024-01-27T00:55:10;100034.31;;;2.54;100.00
57024;BME280;42916;54.346;18.562;2024-01-27T00:57:38;100025.76;;;2.53;100.00
57024;BME280;42916;54.346;18.562;2024-01-27T01:00:06;100026.63;;;2.51;100.00
57024;BME280;42916;54.346;18.562;2024-01-27T01:02:34;100029.91;;;2.50;100.00
57024;BME280;42916;54.346;18.562;2024-01-27T01:05:01;100030.16;;;2.49;100.00
57024;BME280;42916;54.346;18.562;2024-01-27T01:07:30;100024.82;;;2.49;100.00
57024;BME280;42916;54.346;18.562;2024-01-27T01:09:58;100018.31;;;2.47;100.00
57024;BME280;42916;54.346;18.562;2024-01-27T01:12:26;100016.15;;;2.47;100.00
57024;BME280;42916;54.346;18.562;2024-01-27T01:14:53;100012.64;;;2.46;100.00
57024;BME280;42916;54.346;18.562;2024-01-27T01:17:22;100016.04;;;2.45;100.00
57024;BME280;42916;54.346;18.562;2024-01-27T01:19:52;100007.04;;;2.44;100.00
57024;BME280;42916;54.346;18.562;2024-01-27T01:22:19;100007.08;;;2.44;100.00
57024;BME280;42916;54.346;18.562;2024-01-27T01:24:47;100009.04;;;2.43;100.00
57024;BME280;42916;54.346;18.562;2024-01-27T01:27:17;100008.45;;;2.42;100.00
57024;BME280;42916;54.346;18.562;2024-01-27T01:29:45;100009.16;;;2.41;100.00
57024;BME280;42916;54.346;18.562;2024-01-27T01:32:13;100010.36;;;2.38;100.00
57024;BME280;42916;54.346;18.562;2024-01-27T01:34:40;100009.38;;;2.36;100.00
57024;BME280;42916;54.346;18.562;2024-01-27T01:37:08;100007.65;;;2.33;100.00
57024;BME280;42916;54.346;18.562;2024-01-27T01:39:35;100011.54;;;2.31;100.00
57024;BME280;42916;54.346;18.562;2024-01-27T01:42:02;100009.30;;;2.30;100.00
57024;BME280;42916;54.346;18.562;2024-01-27T01:44:30;100006.21;;;2.28;100.00
57024;BME280;42916;54.346;18.562;2024-01-27T01:46:58;100006.50;;;2.26;100.00
57024;BME280;42916;54.346;18.562;2024-01-27T01:49:26;100006.19;;;2.23;100.00
57024;BME280;42916;54.346;18.562;2024-01-27T01:51:53;100005.95;;;2.22;100.00
57024;BME280;42916;54.346;18.562;2024-01-27T01:54:20;99994.75;;;2.21;100.00
57024;BME280;42916;54.346;18.562;2024-01-27T01:56:51;100002.98;;;2.21;100.00
57024;BME280;42916;54.346;18.562;2024-01-27T01:59:18;99999.39;;;2.20;100.00
57024;BME280;42916;54.346;18.562;2024-01-27T02:01:45;99997.70;;;2.18;100.00
57024;BME280;42916;54.346;18.562;2024-01-27T02:04:12;99995.10;;;2.16;100.00
57024;BME280;42916;54.346;18.562;2024-01-27T02:06:39;99988.53;;;2.15;100.00
57024;BME280;42916;54.346;18.562;2024-01-27T02:09:06;99987.63;;;2.12;100.00
57024;BME280;42916;54.346;18.562;2024-01-27T02:11:33;99992.06;;;2.08;100.00
57024;BME280;42916;54.346;18.562;2024-01-27T02:14:00;99995.48;;;2.05;100.00
57024;BME280;42916;54.346;18.562;2024-01-27T02:16:27;99989.84;;;2.02;100.00
57024;BME280;42916;54.346;18.562;2024-01-27T02:18:54;99990.88;;;2.00;100.00
57024;BME280;42916;54.346;18.562;2024-01-27T02:21:21;99995.38;;;1.97;100.00
57024;BME280;42916;54.346;18.562;2024-01-27T02:23:48;99991.95;;;1.95;100.00
57024;BME280;42916;54.346;18.562;2024-01-27T02:26:17;99990.51;;;1.93;100.00
57024;BME280;42916;54.346;18.562;2024-01-27T02:28:44;99985.61;;;1.90;100.00
57024;BME280;42916;54.346;18.562;2024-01-27T02:31:11;99989.32;;;1.88;100.00
57024;BME280;42916;54.346;18.562;2024-01-27T02:33:38;99988.20;;;1.85;100.00
57024;BME280;42916;54.346;18.562;2024-01-27T02:36:05;99989.08;;;1.81;100.00
57024;BME280;42916;54.346;18.562;2024-01-27T02:38:32;99990.28;;;1.78;100.00
57024;BME280;42916;54.346;18.562;2024-01-27T02:40:59;99988.19;;;1.75;100.00
57024;BME280;42916;54.346;18.562;2024-01-27T02:43:26;99987.06;;;1.74;100.00
57024;BME280;42916;54.346;18.562;2024-01-27T02:45:52;99992.30;;;1.72;100.00
57024;BME280;42916;54.346;18.562;2024-01-27T02:48:19;99991.89;;;1.70;100.00
57024;BME280;42916;54.346;18.562;2024-01-27T02:50:46;99994.73;;;1.66;100.00
57024;BME280;42916;54.346;18.562;2024-01-27T02:53:13;99990.74;;;1.63;100.00
57024;BME280;42916;54.346;18.562;2024-01-27T02:55:40;99987.86;;;1.60;100.00
57024;BME280;42916;54.346;18.562;2024-01-27T02:58:07;99991.94;;;1.58;100.00
57024;BME280;42916;54.346;18.562;2024-01-27T03:00:34;99998.09;;;1.55;100.00
57024;BME280;42916;54.346;18.562;2024-01-27T03:03:01;100000.48;;;1.53;100.00
57024;BME280;42916;54.346;18.562;2024-01-27T03:05:27;100004.52;;;1.52;100.00
57024;BME280;42916;54.346;18.562;2024-01-27T03:07:54;100002.45;;;1.51;100.00
57024;BME280;42916;54.346;18.562;2024-01-27T03:10:21;99999.20;;;1.52;100.00
57024;BME280;42916;54.346;18.562;2024-01-27T03:12:48;100003.86;;;1.52;100.00
57024;BME280;42916;54.346;18.562;2024-01-27T03:15:16;100001.73;;;1.52;100.00
57024;BME280;42916;54.346;18.562;2024-01-27T03:17:43;100007.74;;;1.52;100.00
57024;BME280;42916;54.346;18.562;2024-01-27T03:20:10;100010.83;;;1.53;100.00
57024;BME280;42916;54.346;18.562;2024-01-27T03:22:38;100012.14;;;1.54;100.00
57024;BME280;42916;54.346;18.562;2024-01-27T03:25:07;100017.06;;;1.55;100.00
57024;BME280;42916;54.346;18.562;2024-01-27T03:27:40;100020.56;;;1.56;100.00
57024;BME280;42916;54.346;18.562;2024-01-27T03:30:07;100024.82;;;1.58;100.00
57024;BME280;42916;54.346;18.562;2024-01-27T03:32:36;100024.48;;;1.59;100.00
57024;BME280;42916;54.346;18.562;2024-01-27T03:35:04;100026.55;;;1.61;100.00
57024;BME280;42916;54.346;18.562;2024-01-27T03:37:31;100029.15;;;1.63;100.00
57024;BME280;42916;54.346;18.562;2024-01-27T03:39:57;100029.61;;;1.65;100.00
57024;BME280;42916;54.346;18.562;2024-01-27T03:42:24;100033.19;;;1.67;100.00
57024;BME280;42916;54.346;18.562;2024-01-27T03:44:54;100039.79;;;1.70;100.00
57024;BME280;42916;54.346;18.562;2024-01-27T03:47:21;100042.98;;;1.72;100.00
57024;BME280;42916;54.346;18.562;2024-01-27T03:49:47;100046.34;;;1.75;100.00
57024;BME280;42916;54.346;18.562;2024-01-27T03:52:17;100045.95;;;1.76;100.00
57024;BME280;42916;54.346;18.562;2024-01-27T03:54:43;100048.66;;;1.77;100.00
57024;BME280;42916;54.346;18.562;2024-01-27T03:57:10;100047.77;;;1.79;100.00
57024;BME280;42916;54.346;18.562;2024-01-27T03:59:40;100056.30;;;1.80;100.00
57024;BME280;42916;54.346;18.562;2024-01-27T04:02:07;100060.02;;;1.82;100.00
57024;BME280;42916;54.346;18.562;2024-01-27T04:04:35;100060.14;;;1.82;100.00
57024;BME280;42916;54.346;18.562;2024-01-27T04:07:03;100065.58;;;1.83;100.00
57024;BME280;42916;54.346;18.562;2024-01-27T04:09:30;100071.06;;;1.83;100.00
57024;BME280;42916;54.346;18.562;2024-01-27T04:11:57;100072.92;;;1.83;100.00
57024;BME280;42916;54.346;18.562;2024-01-27T04:14:24;100078.61;;;1.83;100.00
57024;BME280;42916;54.346;18.562;2024-01-27T04:16:50;100082.91;;;1.83;100.00
57024;BME280;42916;54.346;18.562;2024-01-27T04:19:18;100079.04;;;1.83;100.00
57024;BME280;42916;54.346;18.562;2024-01-27T04:21:45;100081.77;;;1.84;100.00
57024;BME280;42916;54.346;18.562;2024-01-27T04:24:12;100087.41;;;1.84;100.00
57024;BME280;42916;54.346;18.562;2024-01-27T04:26:39;100086.71;;;1.84;100.00
57024;BME280;42916;54.346;18.562;2024-01-27T04:29:06;100091.79;;;1.85;100.00
57024;BME280;42916;54.346;18.562;2024-01-27T04:31:33;100091.66;;;1.84;100.00
57024;BME280;42916;54.346;18.562;2024-01-27T04:34:00;100093.02;;;1.85;100.00
57024;BME280;42916;54.346;18.562;2024-01-27T04:36:27;100097.68;;;1.84;100.00
57024;BME280;42916;54.346;18.562;2024-01-27T04:38:55;100102.97;;;1.83;100.00
57024;BME280;42916;54.346;18.562;2024-01-27T04:41:22;100108.66;;;1.82;100.00
57024;BME280;42916;54.346;18.562;2024-01-27T04:43:49;100115.02;;;1.81;100.00
57024;BME280;42916;54.346;18.562;2024-01-27T04:46:16;100118.11;;;1.81;100.00
57024;BME280;42916;54.346;18.562;2024-01-27T04:48:44;100127.48;;;1.80;100.00
57024;BME280;42916;54.346;18.562;2024-01-27T04:51:11;100128.87;;;1.79;100.00
57024;BME280;42916;54.346;18.562;2024-01-27T04:53:38;100138.65;;;1.80;100.00
57024;BME280;42916;54.346;18.562;2024-01-27T04:56:05;100144.10;;;1.79;100.00
57024;BME280;42916;54.346;18.562;2024-01-27T04:58:36;100144.64;;;1.76;100.00
57024;BME280;42916;54.346;18.562;2024-01-27T05:01:03;100156.02;;;1.74;100.00
57024;BME280;42916;54.346;18.562;2024-01-27T05:03:30;100160.64;;;1.74;100.00
57024;BME280;42916;54.346;18.562;2024-01-27T05:05:57;100168.39;;;1.74;100.00
57024;BME280;42916;54.346;18.562;2024-01-27T05:08:26;100168.17;;;1.71;100.00
57024;BME280;42916;54.346;18.562;2024-01-27T05:10:52;100170.40;;;1.69;100.00
57024;BME280;42916;54.346;18.562;2024-01-27T05:13:20;100177.73;;;1.68;100.00
57024;BME280;42916;54.346;18.562;2024-01-27T05:15:47;100183.52;;;1.66;100.00
57024;BME280;42916;54.346;18.562;2024-01-27T05:18:13;100187.09;;;1.63;100.00
57024;BME280;42916;54.346;18.562;2024-01-27T05:20:40;100193.03;;;1.60;100.00
57024;BME280;42916;54.346;18.562;2024-01-27T05:23:07;100209.36;;;1.57;100.00
57024;BME280;42916;54.346;18.562;2024-01-27T05:25:34;100205.62;;;1.54;100.00
57024;BME280;42916;54.346;18.562;2024-01-27T05:28:01;100211.34;;;1.51;100.00
57024;BME280;42916;54.346;18.562;2024-01-27T05:30:28;100217.65;;;1.49;100.00
57024;BME280;42916;54.346;18.562;2024-01-27T05:32:55;100227.09;;;1.47;100.00
57024;BME280;42916;54.346;18.562;2024-01-27T05:35:22;100221.59;;;1.44;100.00
57024;BME280;42916;54.346;18.562;2024-01-27T05:37:50;100230.10;;;1.42;100.00
57024;BME280;42916;54.346;18.562;2024-01-27T05:40:18;100234.88;;;1.39;100.00
57024;BME280;42916;54.346;18.562;2024-01-27T05:42:46;100242.51;;;1.37;100.00
57024;BME280;42916;54.346;18.562;2024-01-27T05:45:13;100250.90;;;1.36;100.00
57024;BME280;42916;54.346;18.562;2024-01-27T05:47:41;100256.80;;;1.34;100.00
57024;BME280;42916;54.346;18.562;2024-01-27T05:50:08;100260.13;;;1.31;100.00
57024;BME280;42916;54.346;18.562;2024-01-27T05:52:35;100270.24;;;1.28;100.00
57024;BME280;42916;54.346;18.562;2024-01-27T05:55:02;100279.84;;;1.26;100.00
57024;BME280;42916;54.346;18.562;2024-01-27T05:57:33;100288.57;;;1.23;100.00
57024;BME280;42916;54.346;18.562;2024-01-27T06:00:00;100294.27;;;1.19;100.00
57024;BME280;42916;54.346;18.562;2024-01-27T06:02:27;100305.49;;;1.15;100.00
57024;BME280;42916;54.346;18.562;2024-01-27T06:04:54;100309.15;;;1.12;100.00
57024;BME280;42916;54.346;18.562;2024-01-27T06:07:21;100313.03;;;1.09;100.00
57024;BME280;42916;54.346;18.562;2024-01-27T06:09:48;100322.70;;;1.06;100.00
57024;BME280;42916;54.346;18.562;2024-01-27T06:12:17;100331.17;;;1.03;100.00
57024;BME280;42916;54.346;18.562;2024-01-27T06:14:44;100346.52;;;1.00;100.00
57024;BME280;42916;54.346;18.562;2024-01-27T06:17:11;100357.83;;;0.98;100.00
57024;BME280;42916;54.346;18.562;2024-01-27T06:19:37;100367.43;;;0.97;100.00
57024;BME280;42916;54.346;18.562;2024-01-27T06:22:04;100373.15;;;0.96;100.00
57024;BME280;42916;54.346;18.562;2024-01-27T06:24:31;100377.40;;;0.96;100.00
57024;BME280;42916;54.346;18.562;2024-01-27T06:26:58;100390.96;;;0.98;100.00
57024;BME280;42916;54.346;18.562;2024-01-27T06:29:25;100402.05;;;0.99;100.00
57024;BME280;42916;54.346;18.562;2024-01-27T06:31:53;100409.02;;;0.99;100.00
57024;BME280;42916;54.346;18.562;2024-01-27T06:34:20;100417.56;;;0.99;100.00
57024;BME280;42916;54.346;18.562;2024-01-27T06:36:47;100422.21;;;0.99;100.00
57024;BME280;42916;54.346;18.562;2024-01-27T06:39:14;100430.42;;;1.01;100.00
57024;BME280;42916;54.346;18.562;2024-01-27T06:41:40;100437.10;;;1.04;100.00
57024;BME280;42916;54.346;18.562;2024-01-27T06:44:07;100446.21;;;1.10;100.00
57024;BME280;42916;54.346;18.562;2024-01-27T06:46:34;100452.02;;;1.15;100.00
57024;BME280;42916;54.346;18.562;2024-01-27T06:49:01;100459.48;;;1.20;100.00
57024;BME280;42916;54.346;18.562;2024-01-27T06:51:28;100463.34;;;1.24;100.00
57024;BME280;42916;54.346;18.562;2024-01-27T06:53:56;100473.94;;;1.30;100.00
57024;BME280;42916;54.346;18.562;2024-01-27T06:56:23;100477.77;;;1.35;100.00
57024;BME280;42916;54.346;18.562;2024-01-27T06:58:52;100479.46;;;1.39;100.00
57024;BME280;42916;54.346;18.562;2024-01-27T07:01:19;100490.30;;;1.43;100.00
57024;BME280;42916;54.346;18.562;2024-01-27T07:03:47;100495.16;;;1.46;100.00
57024;BME280;42916;54.346;18.562;2024-01-27T07:06:15;100499.19;;;1.49;100.00
57024;BME280;42916;54.346;18.562;2024-01-27T07:08:42;100510.54;;;1.52;100.00
57024;BME280;42916;54.346;18.562;2024-01-27T07:11:10;100511.63;;;1.53;100.00
57024;BME280;42916;54.346;18.562;2024-01-27T07:13:36;100522.67;;;1.53;100.00
57024;BME280;42916;54.346;18.562;2024-01-27T07:16:04;100521.78;;;1.54;100.00
57024;BME280;42916;54.346;18.562;2024-01-27T07:18:32;100533.20;;;1.55;100.00
57024;BME280;42916;54.346;18.562;2024-01-27T07:21:01;100543.29;;;1.57;100.00
57024;BME280;42916;54.346;18.562;2024-01-27T07:23:29;100551.11;;;1.55;100.00
57024;BME280;42916;54.346;18.562;2024-01-27T07:25:59;100554.39;;;1.56;100.00
57024;BME280;42916;54.346;18.562;2024-01-27T07:28:30;100565.67;;;1.54;100.00
57024;BME280;42916;54.346;18.562;2024-01-27T07:30:56;100575.66;;;1.55;100.00
57024;BME280;42916;54.346;18.562;2024-01-27T07:33:24;100581.12;;;1.56;100.00
57024;BME280;42916;54.346;18.562;2024-01-27T07:35:52;100586.04;;;1.58;100.00
57024;BME280;42916;54.346;18.562;2024-01-27T07:38:19;100595.94;;;1.57;100.00
57024;BME280;42916;54.346;18.562;2024-01-27T07:40:47;100601.46;;;1.58;100.00
57024;BME280;42916;54.346;18.562;2024-01-27T07:43:14;100605.17;;;1.58;100.00
57024;BME280;42916;54.346;18.562;2024-01-27T07:45:41;100612.02;;;1.59;100.00
57024;BME280;42916;54.346;18.562;2024-01-27T07:48:07;100616.22;;;1.64;100.00
57024;BME280;42916;54.346;18.562;2024-01-27T07:50:35;100627.21;;;1.66;100.00
57024;BME280;42916;54.346;18.562;2024-01-27T07:53:02;100631.48;;;1.68;100.00
57024;BME280;42916;54.346;18.562;2024-01-27T07:55:29;100635.51;;;1.70;100.00
57024;BME280;42916;54.346;18.562;2024-01-27T07:57:56;100646.67;;;1.72;100.00
57024;BME280;42916;54.346;18.562;2024-01-27T08:00:22;100653.69;;;1.73;100.00
57024;BME280;42916;54.346;18.562;2024-01-27T08:02:50;100660.84;;;1.74;100.00
57024;BME280;42916;54.346;18.562;2024-01-27T08:05:17;100661.86;;;1.74;100.00
57024;BME280;42916;54.346;18.562;2024-01-27T08:07:44;100669.05;;;1.75;100.00
57024;BME280;42916;54.346;18.562;2024-01-27T08:10:11;100677.75;;;1.77;100.00
57024;BME280;42916;54.346;18.562;2024-01-27T08:12:38;100687.80;;;1.77;100.00
57024;BME280;42916;54.346;18.562;2024-01-27T08:15:06;100691.95;;;1.78;100.00
57024;BME280;42916;54.346;18.562;2024-01-27T08:17:33;100698.02;;;1.79;100.00
57024;BME280;42916;54.346;18.562;2024-01-27T08:20:01;100705.94;;;1.82;100.00
57024;BME280;42916;54.346;18.562;2024-01-27T08:22:28;100711.98;;;1.83;100.00
57024;BME280;42916;54.346;18.562;2024-01-27T08:24:55;100719.77;;;1.85;100.00
57024;BME280;42916;54.346;18.562;2024-01-27T08:27:22;100729.05;;;1.90;100.00
57024;BME280;42916;54.346;18.562;2024-01-27T08:29:50;100732.62;;;1.92;100.00
57024;BME280;42916;54.346;18.562;2024-01-27T08:32:19;100738.73;;;1.92;100.00
57024;BME280;42916;54.346;18.562;2024-01-27T08:34:46;100751.25;;;1.88;100.00
57024;BME280;42916;54.346;18.562;2024-01-27T08:37:21;100754.73;;;1.86;100.00
57024;BME280;42916;54.346;18.562;2024-01-27T08:39:48;100760.30;;;1.83;100.00
57024;BME280;42916;54.346;18.562;2024-01-27T08:42:18;100761.48;;;1.79;100.00
57024;BME280;42916;54.346;18.562;2024-01-27T08:44:46;100772.83;;;1.74;100.00
57024;BME280;42916;54.346;18.562;2024-01-27T08:47:12;100780.68;;;1.72;100.00
57024;BME280;42916;54.346;18.562;2024-01-27T08:49:39;100791.77;;;1.68;100.00
57024;BME280;42916;54.346;18.562;2024-01-27T08:52:08;100800.84;;;1.64;100.00
57024;BME280;42916;54.346;18.562;2024-01-27T08:55:21;100803.73;;;1.63;100.00
57024;BME280;42916;54.346;18.562;2024-01-27T08:57:56;100813.39;;;1.58;100.00
57024;BME280;42916;54.346;18.562;2024-01-27T09:00:25;100821.19;;;1.56;100.00
57024;BME280;42916;54.346;18.562;2024-01-27T09:02:53;100821.84;;;1.52;100.00
57024;BME280;42916;54.346;18.562;2024-01-27T09:05:20;100824.14;;;1.44;100.00
57024;BME280;42916;54.346;18.562;2024-01-27T09:07:49;100830.08;;;1.38;100.00
57024;BME280;42916;54.346;18.562;2024-01-27T09:10:16;100834.06;;;1.35;100.00
57024;BME280;42916;54.346;18.562;2024-01-27T09:12:43;100840.44;;;1.40;100.00
57024;BME280;42916;54.346;18.562;2024-01-27T09:15:10;100840.29;;;1.44;100.00
57024;BME280;42916;54.346;18.562;2024-01-27T09:17:38;100848.41;;;1.46;100.00
57024;BME280;42916;54.346;18.562;2024-01-27T09:20:05;100849.02;;;1.46;100.00
57024;BME280;42916;54.346;18.562;2024-01-27T09:22:35;100858.71;;;1.45;100.00
57024;BME280;42916;54.346;18.562;2024-01-27T09:25:03;100857.90;;;1.43;100.00
57024;BME280;42916;54.346;18.562;2024-01-27T09:27:30;100867.85;;;1.50;100.00
57024;BME280;42916;54.346;18.562;2024-01-27T09:30:04;100873.78;;;1.53;100.00
57024;BME280;42916;54.346;18.562;2024-01-27T09:32:31;100869.36;;;1.54;100.00
57024;BME280;42916;54.346;18.562;2024-01-27T09:34:58;100878.35;;;1.52;100.00
57024;BME280;42916;54.346;18.562;2024-01-27T09:37:25;100887.80;;;1.52;100.00
57024;BME280;42916;54.346;18.562;2024-01-27T09:39:52;100885.79;;;1.56;100.00
57024;BME280;42916;54.346;18.562;2024-01-27T09:42:20;100886.58;;;1.61;100.00
57024;BME280;42916;54.346;18.562;2024-01-27T09:44:51;100894.77;;;1.68;100.00
57024;BME280;42916;54.346;18.562;2024-01-27T09:47:20;100896.56;;;1.76;100.00
57024;BME280;42916;54.346;18.562;2024-01-27T09:49:49;100906.17;;;1.87;100.00
57024;BME280;42916;54.346;18.562;2024-01-27T09:52:17;100899.39;;;1.96;100.00
57024;BME280;42916;54.346;18.562;2024-01-27T09:54:44;100915.00;;;1.97;100.00
57024;BME280;42916;54.346;18.562;2024-01-27T09:57:11;100911.80;;;1.98;100.00
57024;BME280;42916;54.346;18.562;2024-01-27T09:59:41;100919.56;;;1.99;100.00
57024;BME280;42916;54.346;18.562;2024-01-27T10:02:13;100927.98;;;2.00;100.00
57024;BME280;42916;54.346;18.562;2024-01-27T10:04:42;100934.56;;;1.99;100.00
57024;BME280;42916;54.346;18.562;2024-01-27T10:07:10;100945.62;;;1.95;100.00
57024;BME280;42916;54.346;18.562;2024-01-27T10:09:42;100952.36;;;1.91;100.00
57024;BME280;42916;54.346;18.562;2024-01-27T10:12:10;100959.54;;;1.87;100.00
57024;BME280;42916;54.346;18.562;2024-01-27T10:14:42;100960.33;;;1.85;100.00
57024;BME280;42916;54.346;18.562;2024-01-27T10:17:21;100967.72;;;1.85;100.00
57024;BME280;42916;54.346;18.562;2024-01-27T10:20:04;100968.16;;;1.93;100.00
57024;BME280;42916;54.346;18.562;2024-01-27T10:22:37;100971.36;;;2.11;100.00
57024;BME280;42916;54.346;18.562;2024-01-27T10:25:05;100980.38;;;2.29;100.00
57024;BME280;42916;54.346;18.562;2024-01-27T10:27:33;100984.42;;;2.34;100.00
57024;BME280;42916;54.346;18.562;2024-01-27T10:30:00;100988.20;;;2.36;100.00
57024;BME280;42916;54.346;18.562;2024-01-27T10:32:27;100992.52;;;2.38;100.00
57024;BME280;42916;54.346;18.562;2024-01-27T10:35:07;100995.34;;;2.54;100.00
57024;BME280;42916;54.346;18.562;2024-01-27T10:37:37;101004.33;;;2.67;100.00
57024;BME280;42916;54.346;18.562;2024-01-27T10:40:07;101011.39;;;2.60;100.00
57024;BME280;42916;54.346;18.562;2024-01-27T10:42:35;101010.67;;;2.52;100.00
57024;BME280;42916;54.346;18.562;2024-01-27T10:45:04;101024.67;;;2.46;100.00
57024;BME280;42916;54.346;18.562;2024-01-27T10:47:32;101023.05;;;2.41;100.00
57024;BME280;42916;54.346;18.562;2024-01-27T10:50:00;101026.91;;;2.36;100.00
57024;BME280;42916;54.346;18.562;2024-01-27T10:52:32;101032.78;;;2.34;100.00
57024;BME280;42916;54.346;18.562;2024-01-27T10:55:03;101035.73;;;2.34;100.00
57024;BME280;42916;54.346;18.562;2024-01-27T10:57:34;101035.94;;;2.35;100.00
57024;BME280;42916;54.346;18.562;2024-01-27T11:00:01;101045.34;;;2.39;100.00
57024;BME280;42916;54.346;18.562;2024-01-27T11:02:33;101049.24;;;2.44;100.00
57024;BME280;42916;54.346;18.562;2024-01-27T11:05:03;101051.06;;;2.51;100.00
57024;BME280;42916;54.346;18.562;2024-01-27T11:07:32;101057.95;;;2.56;100.00
57024;BME280;42916;54.346;18.562;2024-01-27T11:09:59;101067.13;;;2.56;100.00
57024;BME280;42916;54.346;18.562;2024-01-27T11:12:27;101077.27;;;2.54;100.00
57024;BME280;42916;54.346;18.562;2024-01-27T11:14:55;101078.42;;;2.57;100.00
57024;BME280;42916;54.346;18.562;2024-01-27T11:17:25;101079.55;;;2.61;100.00
57024;BME280;42916;54.346;18.562;2024-01-27T11:19:53;101088.19;;;2.61;100.00
57024;BME280;42916;54.346;18.562;2024-01-27T11:22:43;101100.11;;;2.63;100.00
57024;BME280;42916;54.346;18.562;2024-01-27T11:25:16;101104.58;;;2.63;100.00
57024;BME280;42916;54.346;18.562;2024-01-27T11:27:45;101104.80;;;2.61;100.00
57024;BME280;42916;54.346;18.562;2024-01-27T11:30:30;101101.24;;;2.64;100.00
57024;BME280;42916;54.346;18.562;2024-01-27T11:33:04;101105.77;;;2.65;100.00
57024;BME280;42916;54.346;18.562;2024-01-27T11:35:31;101113.21;;;2.66;100.00
57024;BME280;42916;54.346;18.562;2024-01-27T11:37:58;101121.23;;;2.69;100.00
57024;BME280;42916;54.346;18.562;2024-01-27T11:40:25;101124.89;;;2.73;100.00
57024;BME280;42916;54.346;18.562;2024-01-27T11:43:07;101126.27;;;2.75;100.00
57024;BME280;42916;54.346;18.562;2024-01-27T11:46:01;101135.95;;;2.73;100.00
57024;BME280;42916;54.346;18.562;2024-01-27T11:48:28;101142.69;;;2.72;100.00
57024;BME280;42916;54.346;18.562;2024-01-27T11:53:30;101160.53;;;2.75;100.00
57024;BME280;42916;54.346;18.562;2024-01-27T11:55:57;101163.98;;;2.78;100.00
57024;BME280;42916;54.346;18.562;2024-01-27T11:58:25;101171.10;;;2.79;100.00
57024;BME280;42916;54.346;18.562;2024-01-27T12:00:52;101173.09;;;2.82;100.00
57024;BME280;42916;54.346;18.562;2024-01-27T12:03:19;101180.70;;;2.82;100.00
57024;BME280;42916;54.346;18.562;2024-01-27T12:05:47;101171.94;;;2.82;100.00
57024;BME280;42916;54.346;18.562;2024-01-27T12:08:14;101185.29;;;2.80;100.00
57024;BME280;42916;54.346;18.562;2024-01-27T12:10:40;101187.85;;;2.80;100.00
57024;BME280;42916;54.346;18.562;2024-01-27T12:13:07;101197.93;;;2.82;100.00
57024;BME280;42916;54.346;18.562;2024-01-27T12:15:35;101204.16;;;2.84;100.00
57024;BME280;42916;54.346;18.562;2024-01-27T12:18:04;101212.30;;;2.87;100.00
57024;BME280;42916;54.346;18.562;2024-01-27T12:20:32;101212.79;;;2.90;100.00
57024;BME280;42916;54.346;18.562;2024-01-27T12:23:03;101228.70;;;2.91;100.00
57024;BME280;42916;54.346;18.562;2024-01-27T12:25:31;101229.11;;;2.94;100.00
57024;BME280;42916;54.346;18.562;2024-01-27T12:28:05;101231.89;;;2.96;100.00
57024;BME280;42916;54.346;18.562;2024-01-27T12:30:35;101233.71;;;3.00;100.00
57024;BME280;42916;54.346;18.562;2024-01-27T12:33:09;101251.18;;;3.01;100.00
57024;BME280;42916;54.346;18.562;2024-01-27T12:35:36;101244.68;;;3.02;100.00
57024;BME280;42916;54.346;18.562;2024-01-27T12:38:05;101258.27;;;3.06;100.00
57024;BME280;42916;54.346;18.562;2024-01-27T12:40:32;101259.21;;;3.10;100.00
57024;BME280;42916;54.346;18.562;2024-01-27T12:42:59;101257.57;;;3.14;100.00
57024;BME280;42916;54.346;18.562;2024-01-27T12:45:26;101263.45;;;3.17;100.00
57024;BME280;42916;54.346;18.562;2024-01-27T12:47:53;101270.67;;;3.19;100.00